EWG14PJ EDDL-LGKO
Flight info
| Callsign | EWG14PJ |
|---|---|
| Flight time | 2h 46m |
| Altitude | 37000 |
| Route | DODEN7Z DODEN Y853 BOMBI DCT DETEV DCT DINKU DCT BESNI DCT GOMIG DCT BEDOX DCT GUBOK DCT VEBAR DCT VABEK UL603 OLOTA DCT RUGAS DCT GIKAS DCT MES UN139 LURUS L995 KOPAR |
| Aircraft | A319/M-SDE3FGHIRWY/LB1 |
Departure
| Time | 2026-05-08 15:17 |
|---|---|
| Airport | Düsseldorf Airport (EDDL) |
Arrival
| Time | 2026-05-08 18:03 |
|---|---|
| Airport | Kos International Airport "Ippokratis" (LGKO) |
| Time | Latitude | Longitude | Altitude | Speed | Heading |
|---|---|---|---|---|---|
| 2026-05-08 14:58 | 51.28207 | 6.76739 | 118 ft | 0 kts | 276° |
| 2026-05-08 15:10 | 51.28206 | 6.76744 | 113 ft | 3 kts | 277° |
| 2026-05-08 15:10 | 51.28202 | 6.76787 | 114 ft | 4 kts | 288° |
| 2026-05-08 15:10 | 51.28190 | 6.76825 | 115 ft | 4 kts | 319° |
| 2026-05-08 15:10 | 51.28176 | 6.76837 | 115 ft | 0 kts | 6° |
| 2026-05-08 15:12 | 51.28190 | 6.76839 | 114 ft | 4 kts | 6° |
| 2026-05-08 15:13 | 51.28237 | 6.76848 | 116 ft | 9 kts | 7° |
| 2026-05-08 15:13 | 51.28303 | 6.76812 | 116 ft | 12 kts | 323° |
| 2026-05-08 15:13 | 51.28376 | 6.76723 | 117 ft | 13 kts | 322° |
| 2026-05-08 15:13 | 51.28409 | 6.76605 | 118 ft | 13 kts | 240° |
| 2026-05-08 15:14 | 51.28352 | 6.76487 | 116 ft | 15 kts | 232° |
| 2026-05-08 15:14 | 51.28284 | 6.76343 | 116 ft | 18 kts | 233° |
| 2026-05-08 15:14 | 51.28204 | 6.76174 | 118 ft | 20 kts | 233° |
| 2026-05-08 15:14 | 51.28121 | 6.75999 | 118 ft | 20 kts | 233° |
| 2026-05-08 15:15 | 51.28039 | 6.75826 | 116 ft | 20 kts | 233° |
| 2026-05-08 15:15 | 51.27956 | 6.75654 | 118 ft | 20 kts | 233° |
| 2026-05-08 15:15 | 51.27876 | 6.75485 | 118 ft | 16 kts | 233° |
| 2026-05-08 15:15 | 51.27844 | 6.75367 | 118 ft | 11 kts | 282° |
| 2026-05-08 15:16 | 51.27905 | 6.75297 | 117 ft | 12 kts | 335° |
| 2026-05-08 15:16 | 51.27990 | 6.75283 | 115 ft | 13 kts | 25° |
| 2026-05-08 15:16 | 51.28066 | 6.75420 | 115 ft | 32 kts | 52° |
| 2026-05-08 15:16 | 51.28356 | 6.76031 | 114 ft | 103 kts | 53° |
| 2026-05-08 15:17 | 51.28911 | 6.77195 | 120 ft | 158 kts | 53° |
| 2026-05-08 15:17 | 51.29603 | 6.78693 | 551 ft | 168 kts | 53° |
| 2026-05-08 15:17 | 51.30303 | 6.80205 | 1253 ft | 170 kts | 52° |
| 2026-05-08 15:17 | 51.31034 | 6.81728 | 1884 ft | 177 kts | 51° |
| 2026-05-08 15:18 | 51.31816 | 6.83333 | 2454 ft | 190 kts | 51° |
| 2026-05-08 15:18 | 51.32656 | 6.85083 | 2859 ft | 209 kts | 52° |
| 2026-05-08 15:18 | 51.33570 | 6.87016 | 3245 ft | 229 kts | 53° |
| 2026-05-08 15:18 | 51.34550 | 6.89196 | 3711 ft | 252 kts | 55° |
| 2026-05-08 15:19 | 51.35230 | 6.91836 | 4459 ft | 264 kts | 82° |
| 2026-05-08 15:19 | 51.35102 | 6.94796 | 5347 ft | 271 kts | 105° |
| 2026-05-08 15:19 | 51.34297 | 6.97507 | 6264 ft | 273 kts | 129° |
| 2026-05-08 15:19 | 51.32973 | 6.99700 | 7186 ft | 275 kts | 137° |
| 2026-05-08 15:20 | 51.31587 | 7.01839 | 8040 ft | 279 kts | 137° |
| 2026-05-08 15:20 | 51.30174 | 7.04005 | 8895 ft | 284 kts | 137° |
| 2026-05-08 15:20 | 51.28735 | 7.06213 | 9749 ft | 289 kts | 137° |
| 2026-05-08 15:20 | 51.27270 | 7.08464 | 10400 ft | 300 kts | 137° |
| 2026-05-08 15:21 | 51.25702 | 7.10871 | 10659 ft | 324 kts | 137° |
| 2026-05-08 15:21 | 51.24022 | 7.13446 | 10965 ft | 343 kts | 137° |
| 2026-05-08 15:21 | 51.22277 | 7.16119 | 11604 ft | 350 kts | 137° |
| 2026-05-08 15:21 | 51.20509 | 7.18823 | 12331 ft | 355 kts | 137° |
| 2026-05-08 15:22 | 51.18985 | 7.21155 | 12939 ft | 359 kts | 137° |
| 2026-05-08 15:22 | 51.17174 | 7.23920 | 13668 ft | 363 kts | 137° |
| 2026-05-08 15:22 | 51.15342 | 7.26714 | 14332 ft | 367 kts | 137° |
| 2026-05-08 15:22 | 51.13490 | 7.29534 | 14969 ft | 370 kts | 137° |
| 2026-05-08 15:23 | 51.11616 | 7.32382 | 15613 ft | 374 kts | 137° |
| 2026-05-08 15:23 | 51.09729 | 7.35248 | 16212 ft | 377 kts | 137° |
| 2026-05-08 15:23 | 51.07824 | 7.38139 | 16855 ft | 380 kts | 137° |
| 2026-05-08 15:23 | 51.05923 | 7.41025 | 17490 ft | 384 kts | 137° |
| 2026-05-08 15:24 | 51.03963 | 7.44003 | 18145 ft | 387 kts | 137° |
| 2026-05-08 15:24 | 51.02005 | 7.46969 | 18728 ft | 390 kts | 137° |
| 2026-05-08 15:24 | 51.00053 | 7.49914 | 19281 ft | 393 kts | 137° |
| 2026-05-08 15:24 | 50.98064 | 7.52909 | 19851 ft | 396 kts | 138° |
| 2026-05-08 15:25 | 50.96056 | 7.55930 | 20411 ft | 399 kts | 138° |
| 2026-05-08 15:25 | 50.94035 | 7.58968 | 20977 ft | 402 kts | 138° |
| 2026-05-08 15:25 | 50.92001 | 7.62032 | 21521 ft | 405 kts | 138° |
| 2026-05-08 15:25 | 50.89948 | 7.65119 | 22053 ft | 407 kts | 138° |
| 2026-05-08 15:26 | 50.87884 | 7.68220 | 22573 ft | 410 kts | 138° |
| 2026-05-08 15:26 | 50.85803 | 7.71341 | 23081 ft | 413 kts | 138° |
| 2026-05-08 15:26 | 50.83709 | 7.74481 | 23591 ft | 416 kts | 138° |
| 2026-05-08 15:26 | 50.81602 | 7.77630 | 24008 ft | 419 kts | 139° |
| 2026-05-08 15:27 | 50.79474 | 7.80801 | 24424 ft | 421 kts | 139° |
| 2026-05-08 15:27 | 50.77336 | 7.83983 | 24828 ft | 423 kts | 139° |
| 2026-05-08 15:27 | 50.75183 | 7.87185 | 25230 ft | 426 kts | 139° |
| 2026-05-08 15:27 | 50.73015 | 7.90403 | 25630 ft | 428 kts | 139° |
| 2026-05-08 15:28 | 50.70832 | 7.93641 | 26027 ft | 431 kts | 139° |
| 2026-05-08 15:28 | 50.68640 | 7.96891 | 26424 ft | 433 kts | 139° |
| 2026-05-08 15:28 | 50.66438 | 8.00150 | 26821 ft | 435 kts | 139° |
| 2026-05-08 15:28 | 50.64219 | 8.03421 | 27210 ft | 438 kts | 139° |
| 2026-05-08 15:29 | 50.61989 | 8.06704 | 27590 ft | 440 kts | 139° |
| 2026-05-08 15:29 | 50.59742 | 8.09995 | 27963 ft | 442 kts | 140° |
| 2026-05-08 15:29 | 50.57436 | 8.13207 | 28343 ft | 444 kts | 141° |
| 2026-05-08 15:29 | 50.55062 | 8.16349 | 28700 ft | 446 kts | 142° |
| 2026-05-08 15:30 | 50.52661 | 8.19432 | 29040 ft | 448 kts | 143° |
| 2026-05-08 15:30 | 50.50239 | 8.22552 | 29375 ft | 451 kts | 140° |
| 2026-05-08 15:30 | 50.48086 | 8.26169 | 29697 ft | 455 kts | 133° |
| 2026-05-08 15:30 | 50.46020 | 8.29854 | 30026 ft | 457 kts | 133° |
| 2026-05-08 15:31 | 50.43906 | 8.33602 | 30302 ft | 459 kts | 133° |
| 2026-05-08 15:31 | 50.41778 | 8.37360 | 30580 ft | 461 kts | 134° |
| 2026-05-08 15:31 | 50.39648 | 8.41114 | 30953 ft | 460 kts | 134° |
| 2026-05-08 15:31 | 50.37521 | 8.44864 | 31326 ft | 459 kts | 134° |
| 2026-05-08 15:32 | 50.35401 | 8.48604 | 31692 ft | 459 kts | 134° |
| 2026-05-08 15:32 | 50.33278 | 8.52349 | 32056 ft | 458 kts | 134° |
| 2026-05-08 15:32 | 50.31160 | 8.56073 | 32404 ft | 458 kts | 134° |
| 2026-05-08 15:32 | 50.29041 | 8.59787 | 32789 ft | 457 kts | 134° |
| 2026-05-08 15:33 | 50.26926 | 8.63492 | 33154 ft | 456 kts | 134° |
| 2026-05-08 15:33 | 50.24815 | 8.67193 | 33507 ft | 456 kts | 134° |
| 2026-05-08 15:33 | 50.22700 | 8.70896 | 33874 ft | 455 kts | 134° |
| 2026-05-08 15:33 | 50.20591 | 8.74577 | 34214 ft | 455 kts | 134° |
| 2026-05-08 15:34 | 50.18504 | 8.78216 | 34488 ft | 455 kts | 134° |
| 2026-05-08 15:34 | 50.16384 | 8.81901 | 34748 ft | 456 kts | 134° |
| 2026-05-08 15:34 | 50.14261 | 8.85580 | 35016 ft | 456 kts | 134° |
| 2026-05-08 15:34 | 50.12131 | 8.89267 | 35245 ft | 457 kts | 134° |
| 2026-05-08 15:35 | 50.09994 | 8.92964 | 35477 ft | 458 kts | 134° |
| 2026-05-08 15:35 | 50.07853 | 8.96666 | 35703 ft | 459 kts | 134° |
| 2026-05-08 15:35 | 50.05736 | 9.00320 | 35928 ft | 459 kts | 134° |
| 2026-05-08 15:35 | 50.03590 | 9.04014 | 36153 ft | 460 kts | 134° |
| 2026-05-08 15:36 | 50.01439 | 9.07715 | 36367 ft | 460 kts | 134° |
| 2026-05-08 15:36 | 50.00018 | 9.10159 | 36507 ft | 460 kts | 134° |
| 2026-05-08 15:36 | 49.97863 | 9.13865 | 36849 ft | 461 kts | 134° |
| 2026-05-08 15:36 | 49.95711 | 9.17563 | 37046 ft | 461 kts | 134° |
| 2026-05-08 15:37 | 49.91388 | 9.24970 | 37106 ft | 462 kts | 134° |
| 2026-05-08 15:37 | 49.87087 | 9.32321 | 37110 ft | 461 kts | 134° |
| 2026-05-08 15:38 | 49.82773 | 9.39659 | 37112 ft | 462 kts | 134° |
| 2026-05-08 15:38 | 49.78437 | 9.47019 | 37110 ft | 462 kts | 134° |
| 2026-05-08 15:39 | 49.74104 | 9.54355 | 37109 ft | 461 kts | 134° |
| 2026-05-08 15:39 | 49.69763 | 9.61681 | 37107 ft | 462 kts | 134° |
| 2026-05-08 15:40 | 49.65433 | 9.68969 | 37102 ft | 462 kts | 134° |
| 2026-05-08 15:40 | 49.61076 | 9.76267 | 37097 ft | 462 kts | 134° |
| 2026-05-08 15:41 | 49.56720 | 9.83545 | 37086 ft | 461 kts | 134° |
| 2026-05-08 15:41 | 49.52369 | 9.90812 | 37086 ft | 461 kts | 134° |
| 2026-05-08 15:42 | 49.48002 | 9.98084 | 37077 ft | 462 kts | 135° |
| 2026-05-08 15:42 | 49.43652 | 10.05307 | 37082 ft | 462 kts | 135° |
| 2026-05-08 15:43 | 49.39269 | 10.12558 | 37083 ft | 462 kts | 135° |
| 2026-05-08 15:43 | 49.34878 | 10.19807 | 37097 ft | 463 kts | 135° |
| 2026-05-08 15:44 | 49.30518 | 10.26993 | 37105 ft | 463 kts | 135° |
| 2026-05-08 15:44 | 49.26110 | 10.34198 | 37117 ft | 463 kts | 135° |
| 2026-05-08 15:45 | 49.21669 | 10.41362 | 37116 ft | 463 kts | 137° |
| 2026-05-08 15:45 | 49.17052 | 10.48263 | 37123 ft | 463 kts | 139° |
| 2026-05-08 15:46 | 49.12379 | 10.55030 | 37123 ft | 463 kts | 139° |
| 2026-05-08 15:46 | 49.07724 | 10.61855 | 37125 ft | 463 kts | 138° |
| 2026-05-08 15:47 | 49.03132 | 10.68660 | 37122 ft | 463 kts | 138° |
| 2026-05-08 15:47 | 48.98486 | 10.75516 | 37129 ft | 463 kts | 138° |
| 2026-05-08 15:48 | 48.91534 | 10.85691 | 37109 ft | 463 kts | 139° |
| 2026-05-08 15:49 | 48.86878 | 10.92503 | 37090 ft | 464 kts | 139° |
| 2026-05-08 15:49 | 48.82223 | 10.99288 | 37075 ft | 464 kts | 139° |
| 2026-05-08 15:50 | 48.77561 | 11.06072 | 37065 ft | 464 kts | 139° |
| 2026-05-08 15:50 | 48.72917 | 11.12801 | 37059 ft | 464 kts | 139° |
| 2026-05-08 15:51 | 48.68236 | 11.19561 | 37057 ft | 464 kts | 139° |
| 2026-05-08 15:51 | 48.63921 | 11.26850 | 37062 ft | 468 kts | 125° |
| 2026-05-08 15:52 | 48.60833 | 11.35559 | 37063 ft | 471 kts | 119° |
| 2026-05-08 15:52 | 48.57826 | 11.44365 | 37060 ft | 471 kts | 120° |
| 2026-05-08 15:53 | 48.54801 | 11.53129 | 37067 ft | 471 kts | 120° |
| 2026-05-08 15:53 | 48.51770 | 11.61904 | 37068 ft | 471 kts | 120° |
| 2026-05-08 15:54 | 48.48741 | 11.70679 | 36858 ft | 472 kts | 121° |
| 2026-05-08 15:54 | 48.47228 | 11.75054 | 37027 ft | 471 kts | 121° |
| 2026-05-08 15:54 | 48.45702 | 11.79455 | 37068 ft | 474 kts | 121° |
| 2026-05-08 15:55 | 48.42660 | 11.88192 | 37073 ft | 474 kts | 121° |
| 2026-05-08 15:55 | 48.38065 | 12.01346 | 37079 ft | 472 kts | 121° |
| 2026-05-08 15:56 | 48.35001 | 12.10071 | 37079 ft | 472 kts | 121° |
| 2026-05-08 15:56 | 48.31933 | 12.18795 | 37081 ft | 472 kts | 121° |
| 2026-05-08 15:57 | 48.28864 | 12.27508 | 37083 ft | 472 kts | 122° |
| 2026-05-08 15:57 | 48.25778 | 12.36212 | 37084 ft | 472 kts | 122° |
| 2026-05-08 15:58 | 48.22686 | 12.44895 | 37083 ft | 472 kts | 122° |
| 2026-05-08 15:58 | 48.19587 | 12.53568 | 37079 ft | 472 kts | 122° |
| 2026-05-08 15:59 | 48.16489 | 12.62235 | 37072 ft | 471 kts | 122° |
| 2026-05-08 15:59 | 48.13185 | 12.70650 | 37065 ft | 465 kts | 132° |
| 2026-05-08 16:00 | 48.09051 | 12.78052 | 37068 ft | 463 kts | 135° |
| 2026-05-08 16:00 | 48.04878 | 12.85397 | 37063 ft | 463 kts | 135° |
| 2026-05-08 16:01 | 48.00711 | 12.92736 | 37062 ft | 463 kts | 135° |
| 2026-05-08 16:01 | 47.96545 | 13.00069 | 37053 ft | 463 kts | 135° |
| 2026-05-08 16:02 | 47.92355 | 13.07391 | 37055 ft | 463 kts | 135° |
| 2026-05-08 16:02 | 47.88170 | 13.14685 | 37066 ft | 463 kts | 135° |
| 2026-05-08 16:03 | 47.83982 | 13.21971 | 37062 ft | 463 kts | 135° |
| 2026-05-08 16:03 | 47.79788 | 13.29261 | 37071 ft | 463 kts | 135° |
| 2026-05-08 16:04 | 47.75589 | 13.36543 | 37076 ft | 464 kts | 135° |
| 2026-05-08 16:04 | 47.71408 | 13.43765 | 37074 ft | 463 kts | 135° |
| 2026-05-08 16:05 | 47.67210 | 13.50994 | 37072 ft | 462 kts | 135° |
| 2026-05-08 16:05 | 47.62979 | 13.58260 | 37072 ft | 462 kts | 135° |
| 2026-05-08 16:06 | 47.58779 | 13.65458 | 37073 ft | 461 kts | 135° |
| 2026-05-08 16:06 | 47.54602 | 13.72603 | 37068 ft | 462 kts | 135° |
| 2026-05-08 16:07 | 47.50372 | 13.79793 | 37062 ft | 463 kts | 135° |
| 2026-05-08 16:07 | 47.46134 | 13.86980 | 37060 ft | 464 kts | 135° |
| 2026-05-08 16:08 | 47.41956 | 13.94067 | 37051 ft | 464 kts | 136° |
| 2026-05-08 16:08 | 47.37712 | 14.01252 | 37055 ft | 465 kts | 135° |
| 2026-05-08 16:09 | 47.34175 | 14.07224 | 37055 ft | 465 kts | 136° |
| 2026-05-08 16:09 | 47.29191 | 14.15602 | 37054 ft | 465 kts | 136° |
| 2026-05-08 16:10 | 47.24925 | 14.22755 | 37050 ft | 464 kts | 136° |
| 2026-05-08 16:10 | 47.20657 | 14.29897 | 37053 ft | 465 kts | 136° |
| 2026-05-08 16:11 | 47.16375 | 14.37036 | 37051 ft | 465 kts | 136° |
| 2026-05-08 16:11 | 47.12093 | 14.44174 | 37048 ft | 465 kts | 136° |
| 2026-05-08 16:12 | 47.07806 | 14.51292 | 37043 ft | 465 kts | 136° |
| 2026-05-08 16:12 | 47.03511 | 14.58387 | 37048 ft | 465 kts | 136° |
| 2026-05-08 16:13 | 46.99246 | 14.65428 | 37050 ft | 465 kts | 136° |
| 2026-05-08 16:13 | 46.94945 | 14.72514 | 37056 ft | 465 kts | 136° |
| 2026-05-08 16:14 | 46.90647 | 14.79578 | 37050 ft | 465 kts | 136° |
| 2026-05-08 16:14 | 46.87069 | 14.85436 | 37057 ft | 465 kts | 136° |
| 2026-05-08 16:15 | 46.82763 | 14.92484 | 37056 ft | 465 kts | 136° |
| 2026-05-08 16:15 | 46.78455 | 14.99512 | 37052 ft | 464 kts | 136° |
| 2026-05-08 16:16 | 46.74144 | 15.06521 | 37048 ft | 464 kts | 136° |
| 2026-05-08 16:16 | 46.69820 | 15.13520 | 37049 ft | 464 kts | 137° |
| 2026-05-08 16:17 | 46.65494 | 15.20510 | 37054 ft | 465 kts | 137° |
| 2026-05-08 16:17 | 46.61164 | 15.27496 | 37044 ft | 464 kts | 137° |
| 2026-05-08 16:18 | 46.56837 | 15.34466 | 37044 ft | 464 kts | 137° |
| 2026-05-08 16:18 | 46.52513 | 15.41415 | 37045 ft | 464 kts | 137° |
| 2026-05-08 16:19 | 46.48175 | 15.48353 | 37036 ft | 463 kts | 137° |
| 2026-05-08 16:19 | 46.43840 | 15.55270 | 37026 ft | 463 kts | 137° |
| 2026-05-08 16:20 | 46.39497 | 15.62187 | 37013 ft | 463 kts | 137° |
| 2026-05-08 16:20 | 46.35150 | 15.69088 | 37029 ft | 464 kts | 137° |
| 2026-05-08 16:21 | 46.30799 | 15.75975 | 37011 ft | 464 kts | 137° |
| 2026-05-08 16:21 | 46.26438 | 15.82862 | 37032 ft | 464 kts | 137° |
| 2026-05-08 16:22 | 46.22201 | 15.89934 | 37037 ft | 466 kts | 134° |
| 2026-05-08 16:22 | 46.18119 | 15.97147 | 37044 ft | 467 kts | 134° |
| 2026-05-08 16:23 | 46.13998 | 16.04372 | 37044 ft | 466 kts | 134° |
| 2026-05-08 16:23 | 46.09829 | 16.11534 | 37042 ft | 466 kts | 135° |
| 2026-05-08 16:24 | 46.05637 | 16.18656 | 37036 ft | 466 kts | 135° |
| 2026-05-08 16:24 | 46.01441 | 16.25775 | 37037 ft | 466 kts | 135° |
| 2026-05-08 16:25 | 45.97253 | 16.32888 | 37035 ft | 466 kts | 135° |
| 2026-05-08 16:25 | 45.93073 | 16.39999 | 37038 ft | 466 kts | 135° |
| 2026-05-08 16:26 | 45.88884 | 16.47096 | 37029 ft | 465 kts | 135° |
| 2026-05-08 16:26 | 45.84684 | 16.54186 | 37036 ft | 465 kts | 135° |
| 2026-05-08 16:27 | 45.80492 | 16.61244 | 37033 ft | 465 kts | 135° |
| 2026-05-08 16:27 | 45.76293 | 16.68294 | 37034 ft | 465 kts | 135° |
| 2026-05-08 16:28 | 45.72091 | 16.75331 | 37028 ft | 465 kts | 135° |
| 2026-05-08 16:28 | 45.67885 | 16.82348 | 37033 ft | 464 kts | 135° |
| 2026-05-08 16:29 | 45.63679 | 16.89354 | 37034 ft | 464 kts | 135° |
| 2026-05-08 16:29 | 45.59469 | 16.96343 | 37030 ft | 464 kts | 135° |
| 2026-05-08 16:30 | 45.55255 | 17.03325 | 37030 ft | 464 kts | 135° |
| 2026-05-08 16:30 | 45.51066 | 17.10248 | 37027 ft | 464 kts | 135° |
| 2026-05-08 16:31 | 45.46823 | 17.17257 | 37027 ft | 464 kts | 136° |
| 2026-05-08 16:31 | 45.42628 | 17.24162 | 37030 ft | 464 kts | 136° |
| 2026-05-08 16:32 | 45.38397 | 17.31103 | 37028 ft | 464 kts | 136° |
| 2026-05-08 16:32 | 45.34163 | 17.38032 | 37021 ft | 464 kts | 136° |
| 2026-05-08 16:33 | 45.29927 | 17.44947 | 37019 ft | 464 kts | 136° |
| 2026-05-08 16:33 | 45.25654 | 17.51904 | 37028 ft | 464 kts | 136° |
| 2026-05-08 16:34 | 45.21430 | 17.58767 | 37022 ft | 464 kts | 136° |
| 2026-05-08 16:34 | 45.17175 | 17.65664 | 37022 ft | 464 kts | 136° |
| 2026-05-08 16:35 | 45.12919 | 17.72545 | 37024 ft | 464 kts | 136° |
| 2026-05-08 16:35 | 45.08662 | 17.79411 | 37020 ft | 464 kts | 136° |
| 2026-05-08 16:36 | 45.04403 | 17.86258 | 37024 ft | 463 kts | 136° |
| 2026-05-08 16:36 | 45.00039 | 17.92946 | 37025 ft | 462 kts | 138° |
| 2026-05-08 16:37 | 44.95573 | 17.99458 | 37023 ft | 461 kts | 139° |
| 2026-05-08 16:37 | 44.91099 | 18.05965 | 37022 ft | 461 kts | 138° |
| 2026-05-08 16:38 | 44.86653 | 18.12502 | 37020 ft | 462 kts | 138° |
| 2026-05-08 16:38 | 44.82211 | 18.19054 | 37013 ft | 462 kts | 138° |
| 2026-05-08 16:39 | 44.77767 | 18.25603 | 37012 ft | 462 kts | 138° |
| 2026-05-08 16:39 | 44.73313 | 18.32138 | 37012 ft | 462 kts | 138° |
| 2026-05-08 16:40 | 44.68876 | 18.38616 | 37010 ft | 463 kts | 138° |
| 2026-05-08 16:40 | 44.64408 | 18.45123 | 37013 ft | 463 kts | 138° |
| 2026-05-08 16:41 | 44.59934 | 18.51631 | 37011 ft | 463 kts | 138° |
| 2026-05-08 16:42 | 44.53213 | 18.61382 | 37017 ft | 464 kts | 138° |
| 2026-05-08 16:42 | 44.48712 | 18.67879 | 37022 ft | 464 kts | 138° |
| 2026-05-08 16:43 | 44.44216 | 18.74371 | 37023 ft | 464 kts | 138° |
| 2026-05-08 16:43 | 44.39711 | 18.80858 | 37021 ft | 464 kts | 139° |
| 2026-05-08 16:44 | 44.35202 | 18.87320 | 37015 ft | 464 kts | 139° |
| 2026-05-08 16:44 | 44.30718 | 18.93738 | 37019 ft | 464 kts | 139° |
| 2026-05-08 16:45 | 44.26205 | 19.00185 | 37018 ft | 464 kts | 139° |
| 2026-05-08 16:45 | 44.21681 | 19.06633 | 37015 ft | 465 kts | 139° |
| 2026-05-08 16:46 | 44.17152 | 19.13073 | 37012 ft | 465 kts | 139° |
| 2026-05-08 16:46 | 44.12601 | 19.19491 | 37010 ft | 465 kts | 140° |
| 2026-05-08 16:47 | 44.07915 | 19.25684 | 37002 ft | 464 kts | 141° |
| 2026-05-08 16:47 | 44.03147 | 19.31752 | 37003 ft | 465 kts | 142° |
| 2026-05-08 16:48 | 43.98398 | 19.37856 | 36999 ft | 465 kts | 141° |
| 2026-05-08 16:48 | 43.93662 | 19.43997 | 36997 ft | 465 kts | 141° |
| 2026-05-08 16:49 | 43.88954 | 19.50093 | 36996 ft | 466 kts | 141° |
| 2026-05-08 16:49 | 43.84206 | 19.56219 | 36997 ft | 466 kts | 141° |
| 2026-05-08 16:50 | 43.79448 | 19.62332 | 36997 ft | 466 kts | 141° |
| 2026-05-08 16:50 | 43.74689 | 19.68445 | 37005 ft | 467 kts | 141° |
| 2026-05-08 16:51 | 43.69916 | 19.74560 | 37004 ft | 467 kts | 141° |
| 2026-05-08 16:51 | 43.65169 | 19.80620 | 36997 ft | 467 kts | 141° |
| 2026-05-08 16:52 | 43.60387 | 19.86709 | 36994 ft | 468 kts | 141° |
| 2026-05-08 16:52 | 43.55593 | 19.92801 | 36998 ft | 468 kts | 141° |
| 2026-05-08 16:53 | 43.49205 | 20.00898 | 37005 ft | 469 kts | 141° |
| 2026-05-08 16:53 | 43.44388 | 20.06988 | 37009 ft | 469 kts | 141° |
| 2026-05-08 16:54 | 43.39579 | 20.13054 | 37012 ft | 469 kts | 141° |
| 2026-05-08 16:54 | 43.34761 | 20.19123 | 37021 ft | 469 kts | 141° |
| 2026-05-08 16:55 | 43.29934 | 20.25183 | 37024 ft | 470 kts | 142° |
| 2026-05-08 16:55 | 43.25109 | 20.31231 | 37026 ft | 470 kts | 142° |
| 2026-05-08 16:56 | 43.20308 | 20.37239 | 37023 ft | 470 kts | 142° |
| 2026-05-08 16:56 | 43.15468 | 20.43277 | 37028 ft | 470 kts | 142° |
| 2026-05-08 16:57 | 43.10621 | 20.49298 | 37029 ft | 470 kts | 142° |
| 2026-05-08 16:57 | 43.05766 | 20.55330 | 37028 ft | 471 kts | 142° |
| 2026-05-08 16:58 | 43.00906 | 20.61354 | 37025 ft | 472 kts | 142° |
| 2026-05-08 16:58 | 42.96094 | 20.67461 | 37030 ft | 472 kts | 140° |
| 2026-05-08 16:59 | 42.91364 | 20.73714 | 37033 ft | 473 kts | 140° |
| 2026-05-08 16:59 | 42.86665 | 20.79934 | 37031 ft | 474 kts | 140° |
| 2026-05-08 17:00 | 42.81900 | 20.86153 | 37033 ft | 474 kts | 140° |
| 2026-05-08 17:00 | 42.77120 | 20.92344 | 37040 ft | 475 kts | 141° |
| 2026-05-08 17:01 | 42.72328 | 20.98542 | 37037 ft | 476 kts | 141° |
| 2026-05-08 17:01 | 42.67524 | 21.04750 | 37035 ft | 476 kts | 141° |
| 2026-05-08 17:02 | 42.62713 | 21.10966 | 37038 ft | 478 kts | 141° |
| 2026-05-08 17:02 | 42.57885 | 21.17188 | 37046 ft | 479 kts | 141° |
| 2026-05-08 17:03 | 42.53040 | 21.23405 | 37043 ft | 480 kts | 141° |
| 2026-05-08 17:03 | 42.48183 | 21.29625 | 37045 ft | 481 kts | 141° |
| 2026-05-08 17:04 | 42.43309 | 21.35852 | 37043 ft | 481 kts | 141° |
| 2026-05-08 17:04 | 42.38437 | 21.42065 | 37041 ft | 481 kts | 141° |
| 2026-05-08 17:05 | 42.33553 | 21.48277 | 37039 ft | 482 kts | 141° |
| 2026-05-08 17:05 | 42.28670 | 21.54483 | 37031 ft | 482 kts | 141° |
| 2026-05-08 17:06 | 42.23806 | 21.60643 | 37022 ft | 482 kts | 141° |
| 2026-05-08 17:06 | 42.18919 | 21.66936 | 37023 ft | 483 kts | 140° |
| 2026-05-08 17:07 | 42.14179 | 21.73286 | 37019 ft | 484 kts | 139° |
| 2026-05-08 17:07 | 42.09414 | 21.79700 | 37020 ft | 484 kts | 139° |
| 2026-05-08 17:08 | 42.04617 | 21.86067 | 37019 ft | 484 kts | 140° |
| 2026-05-08 17:08 | 41.99799 | 21.92409 | 37023 ft | 484 kts | 140° |
| 2026-05-08 17:09 | 41.94971 | 21.98743 | 37025 ft | 485 kts | 140° |
| 2026-05-08 17:09 | 41.90150 | 22.05075 | 37035 ft | 485 kts | 140° |
| 2026-05-08 17:10 | 41.85310 | 22.11418 | 37038 ft | 486 kts | 140° |
| 2026-05-08 17:10 | 41.80461 | 22.17756 | 37041 ft | 487 kts | 140° |
| 2026-05-08 17:11 | 41.75598 | 22.24099 | 37046 ft | 488 kts | 140° |
| 2026-05-08 17:11 | 41.70729 | 22.30432 | 37045 ft | 488 kts | 140° |
| 2026-05-08 17:12 | 41.65853 | 22.36760 | 37046 ft | 488 kts | 140° |
| 2026-05-08 17:12 | 41.60966 | 22.43083 | 37048 ft | 489 kts | 140° |
| 2026-05-08 17:13 | 41.56076 | 22.49406 | 37051 ft | 489 kts | 140° |
| 2026-05-08 17:13 | 41.51186 | 22.55723 | 37052 ft | 490 kts | 140° |
| 2026-05-08 17:14 | 41.46291 | 22.62041 | 37053 ft | 490 kts | 140° |
| 2026-05-08 17:14 | 41.41368 | 22.68349 | 37060 ft | 491 kts | 140° |
| 2026-05-08 17:15 | 41.36439 | 22.74641 | 37067 ft | 491 kts | 140° |
| 2026-05-08 17:15 | 41.31408 | 22.80760 | 37071 ft | 487 kts | 146° |
| 2026-05-08 17:16 | 41.26103 | 22.86395 | 37066 ft | 487 kts | 146° |
| 2026-05-08 17:16 | 41.20796 | 22.91999 | 37068 ft | 487 kts | 146° |
| 2026-05-08 17:17 | 41.15483 | 22.97609 | 37065 ft | 488 kts | 146° |
| 2026-05-08 17:17 | 41.10167 | 23.03215 | 37072 ft | 488 kts | 146° |
| 2026-05-08 17:18 | 41.04848 | 23.08816 | 37073 ft | 489 kts | 146° |
| 2026-05-08 17:18 | 40.99509 | 23.14409 | 37067 ft | 489 kts | 146° |
| 2026-05-08 17:19 | 40.94171 | 23.20001 | 37072 ft | 490 kts | 146° |
| 2026-05-08 17:19 | 40.88822 | 23.25593 | 37074 ft | 490 kts | 146° |
| 2026-05-08 17:20 | 40.83498 | 23.31155 | 37077 ft | 491 kts | 146° |
| 2026-05-08 17:20 | 40.78135 | 23.36734 | 37076 ft | 491 kts | 146° |
| 2026-05-08 17:21 | 40.72759 | 23.42305 | 37082 ft | 492 kts | 146° |
| 2026-05-08 17:21 | 40.67380 | 23.47878 | 37090 ft | 492 kts | 146° |
| 2026-05-08 17:22 | 40.62002 | 23.53443 | 37091 ft | 492 kts | 146° |
| 2026-05-08 17:22 | 40.56622 | 23.58997 | 37091 ft | 491 kts | 146° |
| 2026-05-08 17:23 | 40.51253 | 23.64521 | 37072 ft | 485 kts | 145° |
| 2026-05-08 17:23 | 40.48636 | 23.67220 | 37076 ft | 474 kts | 145° |
| 2026-05-08 17:23 | 40.46049 | 23.69883 | 37079 ft | 470 kts | 145° |
| 2026-05-08 17:24 | 40.40904 | 23.75149 | 37074 ft | 469 kts | 146° |
| 2026-05-08 17:24 | 40.35755 | 23.80402 | 37077 ft | 469 kts | 146° |
| 2026-05-08 17:25 | 40.30602 | 23.85656 | 37075 ft | 470 kts | 146° |
| 2026-05-08 17:25 | 40.25449 | 23.90914 | 37070 ft | 470 kts | 146° |
| 2026-05-08 17:26 | 40.20286 | 23.96171 | 37069 ft | 470 kts | 146° |
| 2026-05-08 17:26 | 40.15115 | 24.01424 | 37066 ft | 470 kts | 146° |
| 2026-05-08 17:27 | 40.09943 | 24.06674 | 37056 ft | 471 kts | 146° |
| 2026-05-08 17:27 | 40.04762 | 24.11921 | 37059 ft | 471 kts | 147° |
| 2026-05-08 17:28 | 39.99561 | 24.17165 | 37051 ft | 472 kts | 147° |
| 2026-05-08 17:28 | 39.94363 | 24.22397 | 37049 ft | 472 kts | 147° |
| 2026-05-08 17:29 | 39.89158 | 24.27618 | 37049 ft | 473 kts | 147° |
| 2026-05-08 17:29 | 39.83949 | 24.32842 | 37048 ft | 473 kts | 147° |
| 2026-05-08 17:30 | 39.79613 | 24.37194 | 37048 ft | 474 kts | 147° |
| 2026-05-08 17:30 | 39.74386 | 24.42421 | 37055 ft | 474 kts | 147° |
| 2026-05-08 17:31 | 39.69147 | 24.47636 | 37045 ft | 475 kts | 148° |
| 2026-05-08 17:31 | 39.63900 | 24.52861 | 37048 ft | 475 kts | 148° |
| 2026-05-08 17:32 | 39.58651 | 24.58082 | 37047 ft | 476 kts | 148° |
| 2026-05-08 17:32 | 39.53389 | 24.63302 | 37046 ft | 477 kts | 148° |
| 2026-05-08 17:33 | 39.48119 | 24.68530 | 37044 ft | 478 kts | 148° |
| 2026-05-08 17:33 | 39.42875 | 24.73835 | 37042 ft | 479 kts | 147° |
| 2026-05-08 17:34 | 39.37637 | 24.79170 | 37048 ft | 479 kts | 147° |
| 2026-05-08 17:34 | 39.32388 | 24.84487 | 37060 ft | 479 kts | 148° |
| 2026-05-08 17:35 | 39.27123 | 24.89787 | 37059 ft | 480 kts | 148° |
| 2026-05-08 17:35 | 39.21860 | 24.95082 | 37062 ft | 480 kts | 148° |
| 2026-05-08 17:36 | 39.16591 | 25.00373 | 37063 ft | 479 kts | 148° |
| 2026-05-08 17:36 | 39.11331 | 25.05641 | 37063 ft | 479 kts | 148° |
| 2026-05-08 17:37 | 39.06060 | 25.10913 | 37061 ft | 479 kts | 148° |
| 2026-05-08 17:37 | 39.00787 | 25.16181 | 37065 ft | 479 kts | 148° |
| 2026-05-08 17:38 | 38.95515 | 25.21438 | 37063 ft | 479 kts | 148° |
| 2026-05-08 17:38 | 38.90271 | 25.26652 | 37067 ft | 479 kts | 148° |
| 2026-05-08 17:39 | 38.84992 | 25.31884 | 37066 ft | 479 kts | 148° |
| 2026-05-08 17:39 | 38.79677 | 25.37146 | 37076 ft | 479 kts | 148° |
| 2026-05-08 17:40 | 38.74430 | 25.42328 | 37076 ft | 479 kts | 148° |
| 2026-05-08 17:40 | 38.69145 | 25.47546 | 37081 ft | 479 kts | 148° |
| 2026-05-08 17:41 | 38.63865 | 25.52759 | 37072 ft | 479 kts | 148° |
| 2026-05-08 17:41 | 38.58570 | 25.57969 | 37077 ft | 479 kts | 148° |
| 2026-05-08 17:42 | 38.53281 | 25.63149 | 37077 ft | 479 kts | 148° |
| 2026-05-08 17:42 | 38.47975 | 25.68336 | 37083 ft | 480 kts | 148° |
| 2026-05-08 17:43 | 38.42683 | 25.73515 | 37087 ft | 480 kts | 148° |
| 2026-05-08 17:43 | 38.37391 | 25.78691 | 37082 ft | 479 kts | 148° |
| 2026-05-08 17:44 | 38.32079 | 25.83853 | 37081 ft | 480 kts | 149° |
| 2026-05-08 17:44 | 38.26764 | 25.88983 | 36843 ft | 477 kts | 152° |
| 2026-05-08 17:45 | 38.23925 | 25.91070 | 36156 ft | 467 kts | 163° |
| 2026-05-08 17:45 | 38.20918 | 25.92545 | 35429 ft | 462 kts | 168° |
| 2026-05-08 17:45 | 38.17880 | 25.93903 | 34448 ft | 462 kts | 168° |
| 2026-05-08 17:45 | 38.14839 | 25.95269 | 33184 ft | 465 kts | 168° |
| 2026-05-08 17:46 | 38.11783 | 25.96648 | 32247 ft | 466 kts | 168° |
| 2026-05-08 17:46 | 38.08748 | 25.98027 | 31979 ft | 471 kts | 167° |
| 2026-05-08 17:46 | 38.05650 | 25.99442 | 31726 ft | 474 kts | 167° |
| 2026-05-08 17:46 | 38.02541 | 26.00866 | 31473 ft | 476 kts | 167° |
| 2026-05-08 17:47 | 37.99421 | 26.02294 | 31230 ft | 478 kts | 167° |
| 2026-05-08 17:47 | 37.96288 | 26.03719 | 30883 ft | 478 kts | 167° |
| 2026-05-08 17:47 | 37.93159 | 26.05139 | 30389 ft | 475 kts | 167° |
| 2026-05-08 17:47 | 37.91100 | 26.06072 | 30049 ft | 473 kts | 167° |
| 2026-05-08 17:48 | 37.86966 | 26.07945 | 29262 ft | 468 kts | 167° |
| 2026-05-08 17:48 | 37.83905 | 26.09331 | 28689 ft | 463 kts | 167° |
| 2026-05-08 17:48 | 37.80882 | 26.10702 | 28127 ft | 459 kts | 167° |
| 2026-05-08 17:48 | 37.77889 | 26.12059 | 27585 ft | 455 kts | 166° |
| 2026-05-08 17:49 | 37.75011 | 26.13742 | 27049 ft | 461 kts | 154° |
| 2026-05-08 17:49 | 37.72362 | 26.15957 | 26523 ft | 459 kts | 151° |
| 2026-05-08 17:49 | 37.69724 | 26.18213 | 25958 ft | 455 kts | 151° |
| 2026-05-08 17:49 | 37.67123 | 26.20454 | 25406 ft | 451 kts | 150° |
| 2026-05-08 17:50 | 37.64544 | 26.22679 | 24866 ft | 447 kts | 150° |
| 2026-05-08 17:50 | 37.61986 | 26.24886 | 24330 ft | 443 kts | 150° |
| 2026-05-08 17:50 | 37.59450 | 26.27065 | 23807 ft | 439 kts | 150° |
| 2026-05-08 17:50 | 37.56929 | 26.29217 | 23217 ft | 435 kts | 150° |
| 2026-05-08 17:51 | 37.54430 | 26.31341 | 22607 ft | 432 kts | 150° |
| 2026-05-08 17:51 | 37.51936 | 26.33459 | 22006 ft | 430 kts | 150° |
| 2026-05-08 17:51 | 37.49461 | 26.35560 | 21423 ft | 428 kts | 150° |
| 2026-05-08 17:51 | 37.46994 | 26.37652 | 20848 ft | 426 kts | 150° |
| 2026-05-08 17:52 | 37.44533 | 26.39739 | 20287 ft | 425 kts | 150° |
| 2026-05-08 17:52 | 37.42116 | 26.41790 | 19742 ft | 424 kts | 149° |
| 2026-05-08 17:52 | 37.37239 | 26.45926 | 18669 ft | 421 kts | 149° |
| 2026-05-08 17:53 | 37.34814 | 26.47983 | 18091 ft | 419 kts | 149° |
| 2026-05-08 17:53 | 37.32394 | 26.50032 | 17500 ft | 418 kts | 149° |
| 2026-05-08 17:53 | 37.29989 | 26.52066 | 17160 ft | 409 kts | 149° |
| 2026-05-08 17:53 | 37.27657 | 26.54041 | 17101 ft | 400 kts | 149° |
| 2026-05-08 17:54 | 37.25370 | 26.55978 | 17119 ft | 399 kts | 149° |
| 2026-05-08 17:54 | 37.23067 | 26.57925 | 17048 ft | 397 kts | 149° |
| 2026-05-08 17:54 | 37.20789 | 26.59847 | 16601 ft | 391 kts | 149° |
| 2026-05-08 17:54 | 37.18580 | 26.61709 | 16222 ft | 375 kts | 149° |
| 2026-05-08 17:55 | 37.16454 | 26.63493 | 15621 ft | 367 kts | 149° |
| 2026-05-08 17:55 | 37.14343 | 26.65260 | 15041 ft | 361 kts | 149° |
| 2026-05-08 17:55 | 37.12267 | 26.66997 | 14469 ft | 355 kts | 149° |
| 2026-05-08 17:55 | 37.10229 | 26.68702 | 13909 ft | 349 kts | 149° |
| 2026-05-08 17:56 | 37.08223 | 26.70382 | 13279 ft | 344 kts | 149° |
| 2026-05-08 17:56 | 37.06243 | 26.72043 | 12667 ft | 340 kts | 149° |
| 2026-05-08 17:56 | 37.04293 | 26.73679 | 12059 ft | 336 kts | 149° |
| 2026-05-08 17:56 | 37.02364 | 26.75297 | 11468 ft | 332 kts | 149° |
| 2026-05-08 17:57 | 37.00454 | 26.76897 | 10882 ft | 328 kts | 149° |
| 2026-05-08 17:57 | 36.98566 | 26.78476 | 10313 ft | 325 kts | 150° |
| 2026-05-08 17:57 | 36.96710 | 26.80026 | 9664 ft | 323 kts | 149° |
| 2026-05-08 17:57 | 36.94825 | 26.81598 | 8790 ft | 327 kts | 149° |
| 2026-05-08 17:58 | 36.93051 | 26.83399 | 7941 ft | 332 kts | 130° |
| 2026-05-08 17:58 | 36.92070 | 26.85990 | 7122 ft | 332 kts | 99° |
| 2026-05-08 17:58 | 36.92219 | 26.88807 | 6407 ft | 324 kts | 69° |
| 2026-05-08 17:58 | 36.93334 | 26.91197 | 5690 ft | 316 kts | 51° |
| 2026-05-08 17:59 | 36.94498 | 26.93493 | 4976 ft | 311 kts | 65° |
| 2026-05-08 17:59 | 36.95309 | 26.95978 | 4277 ft | 305 kts | 77° |
| 2026-05-08 17:59 | 36.95242 | 26.98481 | 4006 ft | 280 kts | 111° |
| 2026-05-08 17:59 | 36.94178 | 27.00366 | 3629 ft | 260 kts | 146° |
| 2026-05-08 18:00 | 36.92644 | 27.01377 | 3271 ft | 245 kts | 161° |
| 2026-05-08 18:00 | 36.89617 | 27.02683 | 2652 ft | 212 kts | 162° |
| 2026-05-08 18:00 | 36.88271 | 27.03258 | 2381 ft | 194 kts | 162° |
| 2026-05-08 18:01 | 36.87044 | 27.03782 | 2091 ft | 179 kts | 162° |
| 2026-05-08 18:01 | 36.85924 | 27.04261 | 1848 ft | 159 kts | 162° |
| 2026-05-08 18:01 | 36.84966 | 27.04779 | 1617 ft | 142 kts | 152° |
| 2026-05-08 18:01 | 36.84160 | 27.05414 | 1327 ft | 134 kts | 148° |
| 2026-05-08 18:02 | 36.83392 | 27.06042 | 1052 ft | 131 kts | 148° |
| 2026-05-08 18:02 | 36.82890 | 27.06447 | 929 ft | 129 kts | 148° |
| 2026-05-08 18:02 | 36.81878 | 27.07240 | 747 ft | 128 kts | 149° |
| 2026-05-08 18:02 | 36.81125 | 27.07820 | 613 ft | 127 kts | 148° |
| 2026-05-08 18:03 | 36.80390 | 27.08389 | 476 ft | 126 kts | 148° |
| 2026-05-08 18:03 | 36.79719 | 27.08913 | 438 ft | 83 kts | 148° |
| 2026-05-08 18:03 | 36.79346 | 27.09202 | 441 ft | 48 kts | 148° |
| 2026-05-08 18:03 | 36.79119 | 27.09354 | 432 ft | 20 kts | 159° |
| 2026-05-08 18:04 | 36.79127 | 27.09389 | 440 ft | 7 kts | 317° |
| 2026-05-08 18:04 | 36.79173 | 27.09341 | 440 ft | 10 kts | 323° |
| 2026-05-08 18:04 | 36.79243 | 27.09283 | 438 ft | 14 kts | 328° |
| 2026-05-08 18:04 | 36.79334 | 27.09212 | 441 ft | 17 kts | 328° |
| 2026-05-08 18:05 | 36.79440 | 27.09130 | 434 ft | 19 kts | 328° |
| 2026-05-08 18:05 | 36.79566 | 27.09034 | 433 ft | 23 kts | 330° |
| 2026-05-08 18:05 | 36.79701 | 27.08991 | 429 ft | 18 kts | 356° |
| 2026-05-08 18:05 | 36.79820 | 27.08988 | 439 ft | 17 kts | 359° |
| 2026-05-08 18:06 | 36.79900 | 27.08985 | 439 ft | 12 kts | 358° |
| 2026-05-08 18:06 | 36.79976 | 27.08952 | 438 ft | 6 kts | 328° |
| 2026-05-08 18:06 | 36.80020 | 27.08955 | 445 ft | 6 kts | 52° |
| 2026-05-08 18:06 | 36.80038 | 27.08995 | 445 ft | 4 kts | 56° |
| 2026-05-08 18:07 | 36.80041 | 27.09002 | 445 ft | 0 kts | 57° |